Smyrna Airport
KMQY : rendu visible

Aérodrome :











RETROUVEZ-NOUS SUR...

 
LOGIN :

S'inscrire | Disclaimer

   EN    FR    IT 

 









Légende :    VFR   VFR Marginal   IFR   IFR Intensif   IFR Très Intensif
Visi : 
Plafond : 
>= 8 km
>= 3000ft
5 à 8 km
1000 à 3000 ft
1500m à 5 km
500 à 1000 ft
800 à 1500m
200 à 500 ft
< 800m
< 200 ft
Symboles :   Orages  Brouillard  Fortes neiges  Fortes précipitations  Vent > 20 kt






- Altitude de l'aérodrome : 543 ft


KMQY - Smyrna

DERNIER METAR :
  • 210156Z 34008KT 10SM BKN037 OVC110 M05/M08 A3055 RMK AO2 SNE05 SLP363 P0000 T10501083

METARs EXPIRÉS :
  • 210056Z 35008KT 9SM -SN SCT028 OVC035 M04/M08 A3055 RMK AO2 SLP363 P0000 T10441083
  • 210040Z 34008KT 9SM -SN BKN030 OVC035 M04/M09 A3055 RMK AO2 P0000
  • 202356Z 35009KT 9SM -SN BKN028 OVC033 M04/M09 A3054 RMK AO2 SLP359 P0000 60000 T10441089 11044 21056 58002

TAF KMQY
Valide du 21 à 01h jusqu'au 22 à 00h UTC


210102Z 2101/2124 35008KT P6SM -SN SCT028 OVC035
FM210400 36006KT P6SM -SN OVC040
FM211000 36006KT P6SM OVC100
FM211200 36006KT P6SM BKN150
FM211400 02008KT P6SM SKC



MET'MAP, la Météo Aéronautique d'un coup d'oeil ! - Copyright ORBIFLY Décembre 2007 - Disclaimer

ORBIFLY MET'MAP TEAM :

Programmation & Développement : Alexandra Zaïnal
Sur une idée originale de : Baudouin d'Aumeries
Assistance à la programmation : Marc-Olivier Méhu
Soutien technique & logistique : Manuel Goepfert

Contact : metmap@orbifly.com




SOURCES & CREDITS :

   NOAA       Earth
Advisory